sensor_id;sensor_type;location;lat;lon;timestamp;P1;durP1;ratioP1;P2;durP2;ratioP2
7485;SDS011;3784;54.098;9.998;2023-04-24T00:02:25;11.37;;;10.57;;
7485;SDS011;3784;54.098;9.998;2023-04-24T00:04:52;11.87;;;11.07;;
7485;SDS011;3784;54.098;9.998;2023-04-24T00:07:19;11.87;;;10.87;;
7485;SDS011;3784;54.098;9.998;2023-04-24T00:09:46;12.97;;;12.03;;
7485;SDS011;3784;54.098;9.998;2023-04-24T00:12:12;12.87;;;11.97;;
7485;SDS011;3784;54.098;9.998;2023-04-24T00:14:39;13.70;;;12.67;;
7485;SDS011;3784;54.098;9.998;2023-04-24T00:17:06;12.63;;;11.73;;
7485;SDS011;3784;54.098;9.998;2023-04-24T00:19:32;13.10;;;12.27;;
7485;SDS011;3784;54.098;9.998;2023-04-24T00:21:59;13.53;;;12.53;;
7485;SDS011;3784;54.098;9.998;2023-04-24T00:24:25;13.20;;;12.27;;
7485;SDS011;3784;54.098;9.998;2023-04-24T00:26:52;14.60;;;13.50;;
7485;SDS011;3784;54.098;9.998;2023-04-24T00:29:18;15.43;;;14.37;;
7485;SDS011;3784;54.098;9.998;2023-04-24T00:31:45;13.77;;;12.70;;
7485;SDS011;3784;54.098;9.998;2023-04-24T00:34:12;14.27;;;13.27;;
7485;SDS011;3784;54.098;9.998;2023-04-24T00:36:38;13.50;;;12.40;;
7485;SDS011;3784;54.098;9.998;2023-04-24T00:39:05;14.13;;;13.13;;
7485;SDS011;3784;54.098;9.998;2023-04-24T00:41:34;13.73;;;12.73;;
7485;SDS011;3784;54.098;9.998;2023-04-24T00:44:01;14.30;;;13.30;;
7485;SDS011;3784;54.098;9.998;2023-04-24T00:46:28;12.90;;;12.00;;
7485;SDS011;3784;54.098;9.998;2023-04-24T00:48:55;14.47;;;13.30;;
7485;SDS011;3784;54.098;9.998;2023-04-24T00:51:22;13.73;;;12.73;;
7485;SDS011;3784;54.098;9.998;2023-04-24T00:53:50;12.47;;;11.47;;
7485;SDS011;3784;54.098;9.998;2023-04-24T00:56:18;12.37;;;11.57;;
7485;SDS011;3784;54.098;9.998;2023-04-24T00:58:44;12.87;;;11.87;;
7485;SDS011;3784;54.098;9.998;2023-04-24T01:01:11;13.40;;;12.40;;
7485;SDS011;3784;54.098;9.998;2023-04-24T01:03:38;12.87;;;11.97;;
7485;SDS011;3784;54.098;9.998;2023-04-24T01:06:05;11.93;;;11.13;;
7485;SDS011;3784;54.098;9.998;2023-04-24T01:08:31;14.20;;;13.30;;
7485;SDS011;3784;54.098;9.998;2023-04-24T01:10:59;11.40;;;10.60;;
7485;SDS011;3784;54.098;9.998;2023-04-24T01:13:26;11.80;;;11.00;;
7485;SDS011;3784;54.098;9.998;2023-04-24T01:15:52;13.07;;;12.17;;
7485;SDS011;3784;54.098;9.998;2023-04-24T01:18:19;12.17;;;11.17;;
7485;SDS011;3784;54.098;9.998;2023-04-24T01:20:47;11.77;;;11.03;;
7485;SDS011;3784;54.098;9.998;2023-04-24T01:23:14;11.80;;;11.00;;
7485;SDS011;3784;54.098;9.998;2023-04-24T01:25:41;10.73;;;9.93;;
7485;SDS011;3784;54.098;9.998;2023-04-24T01:28:08;11.00;;;10.20;;
7485;SDS011;3784;54.098;9.998;2023-04-24T01:30:35;11.23;;;10.43;;
7485;SDS011;3784;54.098;9.998;2023-04-24T01:33:01;11.63;;;10.83;;
7485;SDS011;3784;54.098;9.998;2023-04-24T01:35:28;11.50;;;10.70;;
7485;SDS011;3784;54.098;9.998;2023-04-24T01:37:55;11.67;;;10.77;;
7485;SDS011;3784;54.098;9.998;2023-04-24T01:40:21;11.57;;;10.73;;
7485;SDS011;3784;54.098;9.998;2023-04-24T01:42:48;11.50;;;10.70;;
7485;SDS011;3784;54.098;9.998;2023-04-24T01:45:14;10.67;;;9.77;;
7485;SDS011;3784;54.098;9.998;2023-04-24T01:47:41;11.47;;;10.57;;
7485;SDS011;3784;54.098;9.998;2023-04-24T01:50:08;10.20;;;9.50;;
7485;SDS011;3784;54.098;9.998;2023-04-24T01:52:35;11.53;;;10.63;;
7485;SDS011;3784;54.098;9.998;2023-04-24T01:55:05;10.90;;;10.20;;
7485;SDS011;3784;54.098;9.998;2023-04-24T01:57:33;11.63;;;10.70;;
7485;SDS011;3784;54.098;9.998;2023-04-24T02:00:00;11.10;;;10.30;;
7485;SDS011;3784;54.098;9.998;2023-04-24T02:02:27;12.43;;;11.43;;
7485;SDS011;3784;54.098;9.998;2023-04-24T02:04:55;12.67;;;11.73;;
7485;SDS011;3784;54.098;9.998;2023-04-24T02:07:22;11.73;;;10.83;;
7485;SDS011;3784;54.098;9.998;2023-04-24T02:09:48;13.13;;;12.13;;
7485;SDS011;3784;54.098;9.998;2023-04-24T02:12:15;11.27;;;10.57;;
7485;SDS011;3784;54.098;9.998;2023-04-24T02:14:43;11.57;;;10.77;;
7485;SDS011;3784;54.098;9.998;2023-04-24T02:17:10;12.27;;;11.37;;
7485;SDS011;3784;54.098;9.998;2023-04-24T02:19:38;11.57;;;10.67;;
7485;SDS011;3784;54.098;9.998;2023-04-24T02:22:05;12.60;;;11.67;;
7485;SDS011;3784;54.098;9.998;2023-04-24T02:24:32;11.83;;;11.10;;
7485;SDS011;3784;54.098;9.998;2023-04-24T02:26:58;11.80;;;10.83;;
7485;SDS011;3784;54.098;9.998;2023-04-24T02:29:25;11.73;;;10.83;;
7485;SDS011;3784;54.098;9.998;2023-04-24T02:31:51;11.83;;;11.03;;
7485;SDS011;3784;54.098;9.998;2023-04-24T02:34:18;11.17;;;10.47;;
7485;SDS011;3784;54.098;9.998;2023-04-24T02:36:44;11.40;;;10.43;;
7485;SDS011;3784;54.098;9.998;2023-04-24T02:39:11;12.30;;;11.40;;
7485;SDS011;3784;54.098;9.998;2023-04-24T02:41:37;12.77;;;11.80;;
7485;SDS011;3784;54.098;9.998;2023-04-24T02:44:04;11.43;;;10.60;;
7485;SDS011;3784;54.098;9.998;2023-04-24T02:46:30;12.27;;;11.33;;
7485;SDS011;3784;54.098;9.998;2023-04-24T02:48:57;11.73;;;10.83;;
7485;SDS011;3784;54.098;9.998;2023-04-24T02:51:23;10.63;;;9.93;;
7485;SDS011;3784;54.098;9.998;2023-04-24T02:53:50;11.03;;;10.23;;
7485;SDS011;3784;54.098;9.998;2023-04-24T02:56:16;11.53;;;10.70;;
7485;SDS011;3784;54.098;9.998;2023-04-24T02:58:42;11.73;;;10.93;;
7485;SDS011;3784;54.098;9.998;2023-04-24T03:01:09;12.50;;;11.50;;
7485;SDS011;3784;54.098;9.998;2023-04-24T03:03:37;10.90;;;10.20;;
7485;SDS011;3784;54.098;9.998;2023-04-24T03:06:04;11.37;;;10.57;;
7485;SDS011;3784;54.098;9.998;2023-04-24T03:08:32;11.97;;;11.00;;
7485;SDS011;3784;54.098;9.998;2023-04-24T03:10:58;10.30;;;9.50;;
7485;SDS011;3784;54.098;9.998;2023-04-24T03:13:25;10.77;;;9.97;;
7485;SDS011;3784;54.098;9.998;2023-04-24T03:15:52;11.00;;;10.30;;
7485;SDS011;3784;54.098;9.998;2023-04-24T03:18:20;11.27;;;10.37;;
7485;SDS011;3784;54.098;9.998;2023-04-24T03:20:46;10.90;;;10.20;;
7485;SDS011;3784;54.098;9.998;2023-04-24T03:23:13;11.20;;;10.30;;
7485;SDS011;3784;54.098;9.998;2023-04-24T03:25:40;11.83;;;11.03;;
7485;SDS011;3784;54.098;9.998;2023-04-24T03:28:08;10.83;;;9.93;;
7485;SDS011;3784;54.098;9.998;2023-04-24T03:30:35;11.37;;;10.57;;
7485;SDS011;3784;54.098;9.998;2023-04-24T03:33:01;10.57;;;9.87;;
7485;SDS011;3784;54.098;9.998;2023-04-24T03:35:28;10.60;;;9.90;;
7485;SDS011;3784;54.098;9.998;2023-04-24T03:37:54;10.37;;;9.57;;
7485;SDS011;3784;54.098;9.998;2023-04-24T03:40:21;10.53;;;9.93;;
7485;SDS011;3784;54.098;9.998;2023-04-24T03:42:47;10.07;;;9.37;;
7485;SDS011;3784;54.098;9.998;2023-04-24T03:45:14;10.43;;;9.73;;
7485;SDS011;3784;54.098;9.998;2023-04-24T03:47:40;9.60;;;9.00;;
7485;SDS011;3784;54.098;9.998;2023-04-24T03:50:07;9.87;;;9.20;;
7485;SDS011;3784;54.098;9.998;2023-04-24T03:52:36;8.77;;;8.13;;
7485;SDS011;3784;54.098;9.998;2023-04-24T03:55:02;9.50;;;8.70;;
7485;SDS011;3784;54.098;9.998;2023-04-24T03:57:29;8.53;;;7.97;;
7485;SDS011;3784;54.098;9.998;2023-04-24T03:59:56;8.67;;;8.10;;
7485;SDS011;3784;54.098;9.998;2023-04-24T04:02:22;7.67;;;7.17;;
7485;SDS011;3784;54.098;9.998;2023-04-24T04:04:49;8.80;;;8.27;;
7485;SDS011;3784;54.098;9.998;2023-04-24T04:07:15;8.43;;;7.80;;
7485;SDS011;3784;54.098;9.998;2023-04-24T04:09:42;8.70;;;8.13;;
7485;SDS011;3784;54.098;9.998;2023-04-24T04:12:09;8.47;;;7.97;;
7485;SDS011;3784;54.098;9.998;2023-04-24T04:14:35;7.60;;;7.10;;
7485;SDS011;3784;54.098;9.998;2023-04-24T04:17:02;7.73;;;7.33;;
7485;SDS011;3784;54.098;9.998;2023-04-24T04:19:28;8.60;;;8.07;;
7485;SDS011;3784;54.098;9.998;2023-04-24T04:21:55;7.10;;;6.70;;
7485;SDS011;3784;54.098;9.998;2023-04-24T04:24:22;7.63;;;7.23;;
7485;SDS011;3784;54.098;9.998;2023-04-24T04:26:50;7.43;;;6.93;;
7485;SDS011;3784;54.098;9.998;2023-04-24T04:29:17;7.40;;;7.00;;
7485;SDS011;3784;54.098;9.998;2023-04-24T04:31:46;7.27;;;6.40;;
7485;SDS011;3784;54.098;9.998;2023-04-24T04:34:13;5.87;;;5.57;;
7485;SDS011;3784;54.098;9.998;2023-04-24T04:36:40;6.97;;;6.60;;
7485;SDS011;3784;54.098;9.998;2023-04-24T04:39:07;6.60;;;6.20;;
7485;SDS011;3784;54.098;9.998;2023-04-24T04:41:34;6.50;;;6.10;;
7485;SDS011;3784;54.098;9.998;2023-04-24T04:44:01;7.10;;;6.50;;
7485;SDS011;3784;54.098;9.998;2023-04-24T04:46:30;6.93;;;6.53;;
7485;SDS011;3784;54.098;9.998;2023-04-24T04:49:00;6.63;;;6.23;;
7485;SDS011;3784;54.098;9.998;2023-04-24T04:51:27;6.63;;;6.23;;
7485;SDS011;3784;54.098;9.998;2023-04-24T04:53:54;6.77;;;6.27;;
7485;SDS011;3784;54.098;9.998;2023-04-24T04:56:20;6.40;;;6.00;;
7485;SDS011;3784;54.098;9.998;2023-04-24T04:58:48;7.17;;;6.67;;
7485;SDS011;3784;54.098;9.998;2023-04-24T05:01:14;6.23;;;5.83;;
7485;SDS011;3784;54.098;9.998;2023-04-24T05:03:41;6.73;;;6.23;;
7485;SDS011;3784;54.098;9.998;2023-04-24T05:06:07;6.40;;;6.00;;
7485;SDS011;3784;54.098;9.998;2023-04-24T05:08:34;6.03;;;5.57;;
7485;SDS011;3784;54.098;9.998;2023-04-24T05:11:00;6.47;;;6.00;;
7485;SDS011;3784;54.098;9.998;2023-04-24T05:13:27;6.33;;;5.93;;
7485;SDS011;3784;54.098;9.998;2023-04-24T05:16:05;5.40;;;5.00;;
7485;SDS011;3784;54.098;9.998;2023-04-24T05:18:31;5.93;;;5.30;;
7485;SDS011;3784;54.098;9.998;2023-04-24T05:20:58;6.20;;;5.80;;
7485;SDS011;3784;54.098;9.998;2023-04-24T05:23:24;5.93;;;5.63;;
7485;SDS011;3784;54.098;9.998;2023-04-24T05:25:51;6.73;;;5.37;;
7485;SDS011;3784;54.098;9.998;2023-04-24T05:28:17;6.10;;;5.70;;
7485;SDS011;3784;54.098;9.998;2023-04-24T05:30:44;5.77;;;5.27;;
7485;SDS011;3784;54.098;9.998;2023-04-24T05:33:10;5.13;;;4.83;;
7485;SDS011;3784;54.098;9.998;2023-04-24T05:35:37;6.03;;;4.80;;
7485;SDS011;3784;54.098;9.998;2023-04-24T05:38:03;5.77;;;5.27;;
7485;SDS011;3784;54.098;9.998;2023-04-24T05:40:30;6.03;;;5.60;;
7485;SDS011;3784;54.098;9.998;2023-04-24T05:42:57;5.40;;;5.00;;
7485;SDS011;3784;54.098;9.998;2023-04-24T05:45:23;5.83;;;5.43;;
7485;SDS011;3784;54.098;9.998;2023-04-24T05:47:50;5.50;;;5.10;;
7485;SDS011;3784;54.098;9.998;2023-04-24T05:50:18;5.57;;;5.27;;
7485;SDS011;3784;54.098;9.998;2023-04-24T05:52:45;5.73;;;5.40;;
7485;SDS011;3784;54.098;9.998;2023-04-24T05:55:11;6.07;;;5.67;;
7485;SDS011;3784;54.098;9.998;2023-04-24T05:57:38;5.53;;;5.13;;
7485;SDS011;3784;54.098;9.998;2023-04-24T06:00:04;5.57;;;5.20;;
7485;SDS011;3784;54.098;9.998;2023-04-24T06:02:32;5.07;;;4.77;;
7485;SDS011;3784;54.098;9.998;2023-04-24T06:04:59;4.80;;;4.50;;
7485;SDS011;3784;54.098;9.998;2023-04-24T06:07:26;5.27;;;4.87;;
7485;SDS011;3784;54.098;9.998;2023-04-24T06:09:52;5.17;;;4.77;;
7485;SDS011;3784;54.098;9.998;2023-04-24T06:12:19;5.43;;;4.93;;
7485;SDS011;3784;54.098;9.998;2023-04-24T06:14:45;5.10;;;4.80;;
7485;SDS011;3784;54.098;9.998;2023-04-24T06:17:12;5.33;;;5.03;;
7485;SDS011;3784;54.098;9.998;2023-04-24T06:19:38;5.00;;;4.60;;
7485;SDS011;3784;54.098;9.998;2023-04-24T06:22:05;5.53;;;5.23;;
7485;SDS011;3784;54.098;9.998;2023-04-24T06:24:35;5.10;;;4.80;;
7485;SDS011;3784;54.098;9.998;2023-04-24T06:27:02;4.97;;;4.57;;
7485;SDS011;3784;54.098;9.998;2023-04-24T06:29:31;4.70;;;4.40;;
7485;SDS011;3784;54.098;9.998;2023-04-24T06:31:59;4.97;;;4.47;;
7485;SDS011;3784;54.098;9.998;2023-04-24T06:34:26;4.80;;;4.50;;
7485;SDS011;3784;54.098;9.998;2023-04-24T06:36:52;4.77;;;4.37;;
7485;SDS011;3784;54.098;9.998;2023-04-24T06:39:21;5.90;;;5.50;;
7485;SDS011;3784;54.098;9.998;2023-04-24T06:41:47;5.03;;;4.63;;
7485;SDS011;3784;54.098;9.998;2023-04-24T06:44:14;5.10;;;4.80;;
7485;SDS011;3784;54.098;9.998;2023-04-24T06:46:42;5.20;;;4.70;;
7485;SDS011;3784;54.098;9.998;2023-04-24T06:49:08;4.43;;;4.17;;
7485;SDS011;3784;54.098;9.998;2023-04-24T06:51:35;5.40;;;5.10;;
7485;SDS011;3784;54.098;9.998;2023-04-24T06:54:01;4.70;;;4.40;;
7485;SDS011;3784;54.098;9.998;2023-04-24T06:56:28;5.37;;;5.07;;
7485;SDS011;3784;54.098;9.998;2023-04-24T06:58:55;4.47;;;4.27;;
7485;SDS011;3784;54.098;9.998;2023-04-24T07:01:22;4.60;;;4.23;;
7485;SDS011;3784;54.098;9.998;2023-04-24T07:03:49;5.07;;;4.60;;
7485;SDS011;3784;54.098;9.998;2023-04-24T07:06:15;4.63;;;4.33;;
7485;SDS011;3784;54.098;9.998;2023-04-24T07:08:44;5.00;;;4.70;;
7485;SDS011;3784;54.098;9.998;2023-04-24T07:11:11;5.17;;;4.77;;
7485;SDS011;3784;54.098;9.998;2023-04-24T07:13:37;5.10;;;4.80;;
7485;SDS011;3784;54.098;9.998;2023-04-24T07:16:08;5.50;;;5.00;;
7485;SDS011;3784;54.098;9.998;2023-04-24T07:18:35;4.77;;;4.43;;
7485;SDS011;3784;54.098;9.998;2023-04-24T07:21:02;5.40;;;5.03;;
7485;SDS011;3784;54.098;9.998;2023-04-24T07:23:29;4.87;;;4.57;;
7485;SDS011;3784;54.098;9.998;2023-04-24T07:25:55;4.47;;;4.27;;
7485;SDS011;3784;54.098;9.998;2023-04-24T07:28:22;5.17;;;4.87;;
7485;SDS011;3784;54.098;9.998;2023-04-24T07:30:48;4.93;;;4.63;;
7485;SDS011;3784;54.098;9.998;2023-04-24T07:33:15;4.63;;;4.43;;
7485;SDS011;3784;54.098;9.998;2023-04-24T07:35:41;4.53;;;4.23;;
7485;SDS011;3784;54.098;9.998;2023-04-24T07:38:08;4.77;;;4.43;;
7485;SDS011;3784;54.098;9.998;2023-04-24T07:40:34;5.20;;;4.80;;
7485;SDS011;3784;54.098;9.998;2023-04-24T07:43:01;5.03;;;4.73;;
7485;SDS011;3784;54.098;9.998;2023-04-24T07:45:27;5.47;;;5.13;;
7485;SDS011;3784;54.098;9.998;2023-04-24T07:47:54;5.70;;;5.40;;
7485;SDS011;3784;54.098;9.998;2023-04-24T07:50:21;4.63;;;4.33;;
7485;SDS011;3784;54.098;9.998;2023-04-24T07:52:48;4.47;;;4.17;;
7485;SDS011;3784;54.098;9.998;2023-04-24T07:55:14;5.10;;;4.80;;
7485;SDS011;3784;54.098;9.998;2023-04-24T07:57:41;5.43;;;5.13;;
7485;SDS011;3784;54.098;9.998;2023-04-24T08:00:08;5.63;;;5.27;;
7485;SDS011;3784;54.098;9.998;2023-04-24T08:02:35;5.50;;;5.20;;
7485;SDS011;3784;54.098;9.998;2023-04-24T08:05:02;5.40;;;5.10;;
7485;SDS011;3784;54.098;9.998;2023-04-24T08:07:29;6.80;;;6.37;;
7485;SDS011;3784;54.098;9.998;2023-04-24T08:09:56;5.97;;;5.63;;
7485;SDS011;3784;54.098;9.998;2023-04-24T08:12:23;5.83;;;5.43;;
7485;SDS011;3784;54.098;9.998;2023-04-24T08:14:49;6.40;;;5.97;;
7485;SDS011;3784;54.098;9.998;2023-04-24T08:17:16;6.60;;;6.20;;
7485;SDS011;3784;54.098;9.998;2023-04-24T08:19:43;5.63;;;5.33;;
7485;SDS011;3784;54.098;9.998;2023-04-24T08:22:14;6.97;;;6.53;;
7485;SDS011;3784;54.098;9.998;2023-04-24T08:24:41;5.47;;;5.17;;
7485;SDS011;3784;54.098;9.998;2023-04-24T08:27:08;5.50;;;5.20;;
7485;SDS011;3784;54.098;9.998;2023-04-24T08:29:34;6.00;;;5.60;;
7485;SDS011;3784;54.098;9.998;2023-04-24T08:32:01;5.77;;;5.37;;
7485;SDS011;3784;54.098;9.998;2023-04-24T08:34:28;5.63;;;5.33;;
7485;SDS011;3784;54.098;9.998;2023-04-24T08:36:54;5.63;;;5.23;;
7485;SDS011;3784;54.098;9.998;2023-04-24T08:39:21;5.70;;;5.40;;
7485;SDS011;3784;54.098;9.998;2023-04-24T08:41:48;5.70;;;5.40;;
7485;SDS011;3784;54.098;9.998;2023-04-24T08:44:14;5.87;;;5.47;;
7485;SDS011;3784;54.098;9.998;2023-04-24T08:46:42;5.90;;;5.50;;
7485;SDS011;3784;54.098;9.998;2023-04-24T08:49:13;6.00;;;5.63;;
7485;SDS011;3784;54.098;9.998;2023-04-24T08:51:42;6.17;;;5.77;;
7485;SDS011;3784;54.098;9.998;2023-04-24T08:54:09;5.53;;;5.10;;
7485;SDS011;3784;54.098;9.998;2023-04-24T08:56:36;6.37;;;5.87;;
7485;SDS011;3784;54.098;9.998;2023-04-24T08:59:08;6.50;;;5.97;;
7485;SDS011;3784;54.098;9.998;2023-04-24T09:01:35;6.33;;;5.87;;
7485;SDS011;3784;54.098;9.998;2023-04-24T09:04:06;7.10;;;6.60;;
7485;SDS011;3784;54.098;9.998;2023-04-24T09:06:36;7.20;;;6.60;;
7485;SDS011;3784;54.098;9.998;2023-04-24T09:09:02;7.07;;;6.67;;
7485;SDS011;3784;54.098;9.998;2023-04-24T09:11:32;7.30;;;6.60;;
7485;SDS011;3784;54.098;9.998;2023-04-24T09:14:01;7.20;;;6.70;;
7485;SDS011;3784;54.098;9.998;2023-04-24T09:16:28;6.93;;;6.33;;
7485;SDS011;3784;54.098;9.998;2023-04-24T09:18:55;6.33;;;5.87;;
7485;SDS011;3784;54.098;9.998;2023-04-24T09:21:22;6.40;;;6.00;;
7485;SDS011;3784;54.098;9.998;2023-04-24T09:23:59;6.73;;;6.30;;
7485;SDS011;3784;54.098;9.998;2023-04-24T09:26:29;6.93;;;6.50;;
7485;SDS011;3784;54.098;9.998;2023-04-24T09:28:58;6.63;;;6.23;;
7485;SDS011;3784;54.098;9.998;2023-04-24T09:31:26;7.03;;;6.57;;
7485;SDS011;3784;54.098;9.998;2023-04-24T09:33:54;6.70;;;6.30;;
7485;SDS011;3784;54.098;9.998;2023-04-24T09:36:35;7.67;;;7.03;;
7485;SDS011;3784;54.098;9.998;2023-04-24T09:39:06;7.00;;;6.50;;
7485;SDS011;3784;54.098;9.998;2023-04-24T09:41:46;6.70;;;6.17;;
7485;SDS011;3784;54.098;9.998;2023-04-24T09:44:14;7.63;;;7.13;;
7485;SDS011;3784;54.098;9.998;2023-04-24T09:46:43;7.30;;;6.80;;
7485;SDS011;3784;54.098;9.998;2023-04-24T09:49:15;8.53;;;7.90;;
7485;SDS011;3784;54.098;9.998;2023-04-24T09:51:42;7.33;;;6.83;;
7485;SDS011;3784;54.098;9.998;2023-04-24T09:54:16;8.03;;;7.53;;
7485;SDS011;3784;54.098;9.998;2023-04-24T09:56:46;7.63;;;7.13;;
7485;SDS011;3784;54.098;9.998;2023-04-24T09:59:14;7.63;;;7.13;;
7485;SDS011;3784;54.098;9.998;2023-04-24T10:01:42;8.57;;;7.93;;
7485;SDS011;3784;54.098;9.998;2023-04-24T10:04:21;8.33;;;7.40;;
7485;SDS011;3784;54.098;9.998;2023-04-24T10:06:50;7.80;;;7.30;;
7485;SDS011;3784;54.098;9.998;2023-04-24T10:09:18;7.80;;;7.30;;
7485;SDS011;3784;54.098;9.998;2023-04-24T10:11:47;7.93;;;7.43;;
7485;SDS011;3784;54.098;9.998;2023-04-24T10:14:18;8.33;;;7.77;;
7485;SDS011;3784;54.098;9.998;2023-04-24T10:16:50;9.20;;;7.90;;
7485;SDS011;3784;54.098;9.998;2023-04-24T10:19:18;8.87;;;8.27;;
7485;SDS011;3784;54.098;9.998;2023-04-24T10:21:45;8.30;;;7.80;;
7485;SDS011;3784;54.098;9.998;2023-04-24T10:24:15;7.97;;;7.47;;
7485;SDS011;3784;54.098;9.998;2023-04-24T10:26:44;9.03;;;8.43;;
7485;SDS011;3784;54.098;9.998;2023-04-24T10:29:12;9.00;;;8.40;;
7485;SDS011;3784;54.098;9.998;2023-04-24T10:31:39;8.57;;;7.87;;
7485;SDS011;3784;54.098;9.998;2023-04-24T10:34:06;8.80;;;8.30;;
7485;SDS011;3784;54.098;9.998;2023-04-24T10:36:34;8.60;;;8.00;;
7485;SDS011;3784;54.098;9.998;2023-04-24T10:39:02;8.93;;;8.33;;
7485;SDS011;3784;54.098;9.998;2023-04-24T10:41:30;10.10;;;9.40;;
7485;SDS011;3784;54.098;9.998;2023-04-24T10:44:06;12.03;;;11.23;;
7485;SDS011;3784;54.098;9.998;2023-04-24T10:46:44;10.57;;;9.97;;
7485;SDS011;3784;54.098;9.998;2023-04-24T10:49:11;10.43;;;9.53;;
7485;SDS011;3784;54.098;9.998;2023-04-24T10:51:51;10.30;;;9.70;;
7485;SDS011;3784;54.098;9.998;2023-04-24T10:54:29;11.00;;;10.30;;
7485;SDS011;3784;54.098;9.998;2023-04-24T10:59:46;11.47;;;10.77;;
7485;SDS011;3784;54.098;9.998;2023-04-24T11:02:16;10.23;;;9.53;;
7485;SDS011;3784;54.098;9.998;2023-04-24T11:04:43;9.73;;;9.07;;
7485;SDS011;3784;54.098;9.998;2023-04-24T11:07:11;9.70;;;9.00;;
7485;SDS011;3784;54.098;9.998;2023-04-24T11:09:38;9.27;;;8.57;;
7485;SDS011;3784;54.098;9.998;2023-04-24T11:12:08;10.03;;;9.30;;
7485;SDS011;3784;54.098;9.998;2023-04-24T11:15:22;8.50;;;7.90;;
7485;SDS011;3784;54.098;9.998;2023-04-24T11:17:34;9.90;;;9.20;;
7485;SDS011;3784;54.098;9.998;2023-04-24T11:20:04;9.23;;;8.53;;
7485;SDS011;3784;54.098;9.998;2023-04-24T11:22:52;11.20;;;10.30;;
7485;SDS011;3784;54.098;9.998;2023-04-24T11:25:21;10.43;;;9.63;;
7485;SDS011;3784;54.098;9.998;2023-04-24T11:27:49;10.67;;;9.87;;
7485;SDS011;3784;54.098;9.998;2023-04-24T11:30:20;9.70;;;8.93;;
7485;SDS011;3784;54.098;9.998;2023-04-24T11:32:47;10.47;;;9.57;;
7485;SDS011;3784;54.098;9.998;2023-04-24T11:37:44;10.80;;;9.90;;
7485;SDS011;3784;54.098;9.998;2023-04-24T11:40:21;10.43;;;9.63;;
7485;SDS011;3784;54.098;9.998;2023-04-24T11:42:52;10.87;;;10.07;;
7485;SDS011;3784;54.098;9.998;2023-04-24T11:45:22;11.90;;;11.00;;
7485;SDS011;3784;54.098;9.998;2023-04-24T11:47:51;10.93;;;10.13;;
7485;SDS011;3784;54.098;9.998;2023-04-24T11:50:20;11.27;;;10.50;;
7485;SDS011;3784;54.098;9.998;2023-04-24T11:52:48;11.90;;;11.00;;
7485;SDS011;3784;54.098;9.998;2023-04-24T11:57:46;12.83;;;11.73;;
7485;SDS011;3784;54.098;9.998;2023-04-24T12:00:17;11.67;;;10.93;;
7485;SDS011;3784;54.098;9.998;2023-04-24T12:02:48;11.93;;;11.10;;
7485;SDS011;3784;54.098;9.998;2023-04-24T12:05:23;12.03;;;11.23;;
7485;SDS011;3784;54.098;9.998;2023-04-24T12:07:54;14.70;;;13.70;;
7485;SDS011;3784;54.098;9.998;2023-04-24T12:10:21;12.90;;;11.93;;
7485;SDS011;3784;54.098;9.998;2023-04-24T12:12:49;12.43;;;11.63;;
7485;SDS011;3784;54.098;9.998;2023-04-24T12:15:18;13.77;;;12.87;;
7485;SDS011;3784;54.098;9.998;2023-04-24T12:17:46;11.90;;;11.10;;
7485;SDS011;3784;54.098;9.998;2023-04-24T12:20:13;13.23;;;12.27;;
7485;SDS011;3784;54.098;9.998;2023-04-24T12:22:44;12.77;;;11.83;;
7485;SDS011;3784;54.098;9.998;2023-04-24T12:25:19;14.10;;;13.13;;
7485;SDS011;3784;54.098;9.998;2023-04-24T12:27:52;16.57;;;15.37;;
7485;SDS011;3784;54.098;9.998;2023-04-24T12:30:20;15.10;;;14.00;;
7485;SDS011;3784;54.098;9.998;2023-04-24T12:32:48;14.40;;;13.40;;
7485;SDS011;3784;54.098;9.998;2023-04-24T12:35:19;16.03;;;14.83;;
7485;SDS011;3784;54.098;9.998;2023-04-24T12:37:48;14.67;;;13.47;;
7485;SDS011;3784;54.098;9.998;2023-04-24T12:40:15;15.93;;;14.73;;
7485;SDS011;3784;54.098;9.998;2023-04-24T12:42:49;15.47;;;14.17;;
7485;SDS011;3784;54.098;9.998;2023-04-24T12:45:19;15.97;;;14.77;;
7485;SDS011;3784;54.098;9.998;2023-04-24T12:47:46;15.30;;;14.10;;
7485;SDS011;3784;54.098;9.998;2023-04-24T12:50:13;15.30;;;14.20;;
7485;SDS011;3784;54.098;9.998;2023-04-24T12:52:41;16.50;;;15.20;;
7485;SDS011;3784;54.098;9.998;2023-04-24T12:55:09;16.50;;;15.10;;
7485;SDS011;3784;54.098;9.998;2023-04-24T12:57:36;16.17;;;15.07;;
7485;SDS011;3784;54.098;9.998;2023-04-24T13:00:04;15.80;;;14.57;;
7485;SDS011;3784;54.098;9.998;2023-04-24T13:02:32;14.77;;;13.67;;
7485;SDS011;3784;54.098;9.998;2023-04-24T13:05:00;14.33;;;13.17;;
7485;SDS011;3784;54.098;9.998;2023-04-24T13:07:27;14.47;;;13.27;;
7485;SDS011;3784;54.098;9.998;2023-04-24T13:09:54;14.60;;;13.40;;
7485;SDS011;3784;54.098;9.998;2023-04-24T13:12:21;13.10;;;12.00;;
7485;SDS011;3784;54.098;9.998;2023-04-24T13:14:50;13.23;;;12.17;;
7485;SDS011;3784;54.098;9.998;2023-04-24T13:17:16;13.17;;;11.97;;
7485;SDS011;3784;54.098;9.998;2023-04-24T13:19:43;13.00;;;12.00;;
7485;SDS011;3784;54.098;9.998;2023-04-24T13:22:11;13.30;;;12.20;;
7485;SDS011;3784;54.098;9.998;2023-04-24T13:24:38;13.63;;;12.53;;
7485;SDS011;3784;54.098;9.998;2023-04-24T13:27:08;14.77;;;13.57;;
7485;SDS011;3784;54.098;9.998;2023-04-24T13:29:36;12.37;;;11.40;;
7485;SDS011;3784;54.098;9.998;2023-04-24T13:32:03;12.50;;;11.50;;
7485;SDS011;3784;54.098;9.998;2023-04-24T13:34:29;11.80;;;10.90;;
7485;SDS011;3784;54.098;9.998;2023-04-24T13:36:56;11.67;;;10.77;;
7485;SDS011;3784;54.098;9.998;2023-04-24T13:39:24;12.03;;;11.13;;
7485;SDS011;3784;54.098;9.998;2023-04-24T13:41:52;11.97;;;10.97;;
7485;SDS011;3784;54.098;9.998;2023-04-24T13:44:19;12.13;;;11.13;;
7485;SDS011;3784;54.098;9.998;2023-04-24T13:46:47;12.47;;;11.50;;
7485;SDS011;3784;54.098;9.998;2023-04-24T13:49:15;12.23;;;11.23;;
7485;SDS011;3784;54.098;9.998;2023-04-24T13:51:41;11.70;;;10.90;;
7485;SDS011;3784;54.098;9.998;2023-04-24T13:54:08;11.13;;;10.27;;
7485;SDS011;3784;54.098;9.998;2023-04-24T13:56:35;9.77;;;9.00;;
7485;SDS011;3784;54.098;9.998;2023-04-24T13:59:01;10.23;;;9.53;;
7485;SDS011;3784;54.098;9.998;2023-04-24T14:01:28;8.80;;;8.20;;
7485;SDS011;3784;54.098;9.998;2023-04-24T14:03:55;8.87;;;8.27;;
7485;SDS011;3784;54.098;9.998;2023-04-24T14:06:22;8.87;;;8.33;;
7485;SDS011;3784;54.098;9.998;2023-04-24T14:08:49;9.30;;;8.70;;
7485;SDS011;3784;54.098;9.998;2023-04-24T14:11:17;10.47;;;9.70;;
7485;SDS011;3784;54.098;9.998;2023-04-24T14:13:44;10.27;;;9.63;;
7485;SDS011;3784;54.098;9.998;2023-04-24T14:16:12;9.70;;;8.90;;
7485;SDS011;3784;54.098;9.998;2023-04-24T14:18:39;9.53;;;8.83;;
7485;SDS011;3784;54.098;9.998;2023-04-24T14:21:05;10.17;;;9.47;;
7485;SDS011;3784;54.098;9.998;2023-04-24T14:23:32;10.43;;;9.73;;
7485;SDS011;3784;54.098;9.998;2023-04-24T14:25:59;10.07;;;9.27;;
7485;SDS011;3784;54.098;9.998;2023-04-24T14:28:25;10.97;;;10.17;;
7485;SDS011;3784;54.098;9.998;2023-04-24T14:30:52;11.50;;;10.60;;
7485;SDS011;3784;54.098;9.998;2023-04-24T14:33:19;10.70;;;10.00;;
7485;SDS011;3784;54.098;9.998;2023-04-24T14:35:46;10.83;;;9.93;;
7485;SDS011;3784;54.098;9.998;2023-04-24T14:38:13;12.17;;;11.30;;
7485;SDS011;3784;54.098;9.998;2023-04-24T14:40:41;10.83;;;10.03;;
7485;SDS011;3784;54.098;9.998;2023-04-24T14:43:28;9.93;;;9.13;;
7485;SDS011;3784;54.098;9.998;2023-04-24T14:45:54;10.77;;;9.97;;
7485;SDS011;3784;54.098;9.998;2023-04-24T14:48:21;9.87;;;9.10;;
7485;SDS011;3784;54.098;9.998;2023-04-24T14:50:47;10.40;;;9.70;;
7485;SDS011;3784;54.098;9.998;2023-04-24T14:53:14;10.03;;;9.33;;
7485;SDS011;3784;54.098;9.998;2023-04-24T14:55:40;11.20;;;10.17;;
7485;SDS011;3784;54.098;9.998;2023-04-24T14:58:07;10.30;;;9.60;;
7485;SDS011;3784;54.098;9.998;2023-04-24T15:00:34;10.60;;;9.87;;
7485;SDS011;3784;54.098;9.998;2023-04-24T15:03:00;9.73;;;9.03;;
7485;SDS011;3784;54.098;9.998;2023-04-24T15:05:27;9.60;;;8.90;;
7485;SDS011;3784;54.098;9.998;2023-04-24T15:07:55;10.27;;;9.47;;
7485;SDS011;3784;54.098;9.998;2023-04-24T15:10:21;9.93;;;9.00;;
7485;SDS011;3784;54.098;9.998;2023-04-24T15:12:49;10.17;;;9.40;;
7485;SDS011;3784;54.098;9.998;2023-04-24T15:15:15;10.03;;;9.33;;